createdAt,value
2018-01-18T00:00:35.361Z,89.32
2018-01-18T00:02:02.399Z,89.50
2018-01-18T00:03:29.679Z,89.45
2018-01-18T00:04:56.801Z,89.70
2018-01-18T00:06:27.783Z,89.86
2018-01-18T00:07:51.009Z,89.93
2018-01-18T00:09:18.307Z,89.79
2018-01-18T00:10:45.480Z,89.54
2018-01-18T00:12:16.760Z,89.92
2018-01-18T00:13:44.117Z,89.96
2018-01-18T00:15:11.192Z,89.79
2018-01-18T00:16:34.279Z,89.65
2018-01-18T00:18:01.356Z,89.39
2018-01-18T00:19:32.523Z,89.44
2018-01-18T00:20:55.642Z,89.79
2018-01-18T00:22:22.601Z,90.01
2018-01-18T00:23:49.795Z,89.73
2018-01-18T00:25:17.066Z,90.10
2018-01-18T00:26:44.353Z,89.98
2018-01-18T00:28:15.404Z,90.27
2018-01-18T00:29:38.732Z,90.11
2018-01-18T00:31:09.523Z,90.13
2018-01-18T00:32:36.560Z,90.41
2018-01-18T00:33:59.632Z,90.14
2018-01-18T00:35:26.744Z,90.06
2018-01-18T00:36:57.872Z,90.54
2018-01-18T00:38:25.131Z,90.55
2018-01-18T00:39:48.554Z,90.37
2018-01-18T00:41:19.639Z,90.27
2018-01-18T00:42:46.831Z,90.44
2018-01-18T00:44:13.909Z,90.58
2018-01-18T00:45:37.223Z,90.55
2018-01-18T00:47:08.412Z,90.49
2018-01-18T00:48:35.476Z,90.74
2018-01-18T00:50:02.702Z,90.59
2018-01-18T00:51:25.586Z,90.55
2018-01-18T00:52:56.732Z,90.57
2018-01-18T00:54:19.980Z,90.65
2018-01-18T00:55:47.187Z,90.77
2018-01-18T00:57:14.234Z,90.97
2018-01-18T00:58:41.285Z,90.68
2018-01-18T01:00:08.242Z,90.57
2018-01-18T01:01:39.393Z,90.13
2018-01-18T01:03:02.524Z,89.86
2018-01-18T01:04:29.695Z,90.00
2018-01-18T01:06:00.878Z,90.37
2018-01-18T01:07:24.088Z,90.17
2018-01-18T01:08:51.295Z,90.35
2018-01-18T01:10:22.381Z,90.04
2018-01-18T01:11:45.607Z,89.97
2018-01-18T01:13:16.619Z,90.16
2018-01-18T01:14:39.757Z,90.07
2018-01-18T01:16:06.756Z,89.96
2018-01-18T01:17:33.958Z,90.21
2018-01-18T01:19:04.891Z,90.10
2018-01-18T01:20:28.000Z,90.36
2018-01-18T01:21:55.261Z,90.30
2018-01-18T01:23:26.184Z,90.29
2018-01-18T01:24:53.517Z,90.34
2018-01-18T01:26:16.604Z,90.52
2018-01-18T01:27:47.817Z,90.84
2018-01-18T01:29:11.203Z,90.72
2018-01-18T01:30:42.482Z,90.61
2018-01-18T01:32:05.827Z,90.67
2018-01-18T01:33:36.957Z,90.42
2018-01-18T01:35:00.185Z,90.35
2018-01-18T01:36:31.288Z,90.41
2018-01-18T01:37:54.613Z,90.30
2018-01-18T01:39:21.874Z,90.56
2018-01-18T01:40:49.138Z,90.44
2018-01-18T01:42:16.303Z,90.25
2018-01-18T01:43:43.541Z,90.44
2018-01-18T01:45:10.842Z,90.21
2018-01-18T01:46:42.007Z,90.13
2018-01-18T01:48:05.351Z,90.12
2018-01-18T01:49:36.450Z,90.33
2018-01-18T01:51:03.661Z,90.17
2018-01-18T01:52:26.817Z,90.23
2018-01-18T01:53:53.958Z,90.71
2018-01-18T01:55:20.909Z,90.37
2018-01-18T01:56:48.275Z,90.21
2018-01-18T01:58:15.401Z,90.25
2018-01-18T01:59:42.634Z,89.85
2018-01-18T02:01:09.725Z,89.88
2018-01-18T02:02:40.862Z,90.07
2018-01-18T02:04:08.088Z,89.75
2018-01-18T02:05:31.311Z,89.81
2018-01-18T02:06:58.279Z,89.42
2018-01-18T02:08:29.554Z,89.69
2018-01-18T02:09:52.622Z,89.57
2018-01-18T02:11:23.795Z,89.28
2018-01-18T02:12:47.008Z,89.19
2018-01-18T02:14:18.258Z,89.06
2018-01-18T02:15:41.327Z,89.36
2018-01-18T02:17:12.150Z,89.26
2018-01-18T02:18:35.331Z,89.13
2018-01-18T02:20:06.577Z,89.25
2018-01-18T02:21:33.549Z,89.28
2018-01-18T02:23:00.646Z,89.48
2018-01-18T02:24:23.682Z,89.33
2018-01-18T02:25:54.590Z,89.51
2018-01-18T02:27:21.684Z,89.61
2018-01-18T02:28:44.581Z,89.80
2018-01-18T02:30:15.838Z,89.79
2018-01-18T02:31:43.130Z,89.66
2018-01-18T02:33:10.314Z,89.62
2018-01-18T02:34:37.449Z,89.72
2018-01-18T02:36:00.674Z,89.61
2018-01-18T02:37:27.901Z,89.48
2018-01-18T02:38:59.055Z,89.36
2018-01-18T02:40:26.078Z,89.74
2018-01-18T02:41:53.226Z,89.21
2018-01-18T02:43:20.251Z,88.92
2018-01-18T02:44:43.493Z,88.83
2018-01-18T02:46:14.559Z,88.60
2018-01-18T02:47:41.814Z,88.97
2018-01-18T02:49:04.718Z,88.81
2018-01-18T02:50:35.991Z,88.66
2018-01-18T02:51:59.327Z,88.75
2018-01-18T02:53:30.360Z,88.42
2018-01-18T02:54:53.588Z,88.45
2018-01-18T02:56:24.880Z,88.56
2018-01-18T02:57:51.922Z,88.95
2018-01-18T02:59:15.473Z,88.87
2018-01-18T03:00:46.642Z,89.18
2018-01-18T03:02:09.550Z,89.27
2018-01-18T03:03:36.737Z,89.10
2018-01-18T03:05:03.708Z,89.14
2018-01-18T03:06:34.774Z,89.12
2018-01-18T03:07:57.870Z,89.28
2018-01-18T03:09:28.794Z,89.02
2018-01-18T03:10:56.011Z,89.21
2018-01-18T03:12:19.036Z,89.11
2018-01-18T03:13:50.356Z,89.08
2018-01-18T03:15:17.311Z,89.32
2018-01-18T03:16:40.459Z,88.77
2018-01-18T03:18:07.742Z,88.94
2018-01-18T03:19:39.022Z,89.28
2018-01-18T03:21:02.159Z,89.51
2018-01-18T03:22:29.444Z,89.44
2018-01-18T03:23:56.548Z,89.46
2018-01-18T03:25:27.508Z,89.16
2018-01-18T03:26:50.804Z,89.03
2018-01-18T03:28:17.957Z,88.94
2018-01-18T03:29:45.289Z,88.81
2018-01-18T03:31:16.434Z,88.82
2018-01-18T03:32:43.534Z,88.75
2018-01-18T03:34:06.834Z,88.44
2018-01-18T03:35:38.164Z,88.71
2018-01-18T03:37:01.353Z,88.91
2018-01-18T03:38:28.611Z,89.04
2018-01-18T03:39:55.705Z,88.88
2018-01-18T03:41:26.768Z,89.09
2018-01-18T03:42:53.827Z,89.07
2018-01-18T03:44:17.067Z,88.66
2018-01-18T03:45:48.331Z,88.65
2018-01-18T03:47:11.659Z,88.69
2018-01-18T03:48:38.555Z,88.31
2018-01-18T03:50:09.581Z,88.59
2018-01-18T03:51:32.892Z,88.49
2018-01-18T03:53:00.090Z,88.84
2018-01-18T03:54:27.104Z,88.53
2018-01-18T03:55:54.314Z,88.69
2018-01-18T03:57:25.461Z,88.73
2018-01-18T03:58:52.695Z,89.04
2018-01-18T04:00:16.162Z,88.95
2018-01-18T04:01:47.193Z,88.99
2018-01-18T04:03:10.507Z,89.04
2018-01-18T04:04:41.742Z,89.22
2018-01-18T04:06:08.737Z,88.76
2018-01-18T04:07:32.047Z,88.63
2018-01-18T04:08:59.218Z,88.36
2018-01-18T04:10:26.268Z,88.27
2018-01-18T04:11:53.385Z,87.98
2018-01-18T04:13:24.460Z,88.00
2018-01-18T04:14:51.313Z,88.04
2018-01-18T04:16:14.699Z,88.08
2018-01-18T04:17:41.656Z,88.10
2018-01-18T04:19:12.867Z,87.94
2018-01-18T04:20:40.081Z,87.67
2018-01-18T04:22:07.317Z,87.81
2018-01-18T04:23:34.588Z,87.85
2018-01-18T04:24:57.799Z,87.66
2018-01-18T04:26:28.840Z,87.96
2018-01-18T04:27:52.036Z,88.09
2018-01-18T04:29:23.213Z,88.34
2018-01-18T04:30:50.354Z,88.00
2018-01-18T04:32:13.655Z,87.84
2018-01-18T04:33:44.929Z,87.77
2018-01-18T04:35:07.875Z,88.36
2018-01-18T04:36:35.007Z,88.11
2018-01-18T04:38:02.106Z,88.06
2018-01-18T04:39:29.328Z,87.95
2018-01-18T04:40:56.404Z,88.11
2018-01-18T04:42:23.593Z,87.98
2018-01-18T04:43:50.816Z,87.90
2018-01-18T04:45:21.983Z,88.12
2018-01-18T04:46:45.150Z,88.05
2018-01-18T04:48:16.184Z,88.00
2018-01-18T04:49:39.100Z,87.86
2018-01-18T04:51:10.274Z,88.32
2018-01-18T04:52:33.380Z,88.48
2018-01-18T04:54:00.650Z,88.10
2018-01-18T04:55:27.686Z,88.24
2018-01-18T04:56:58.847Z,88.11
2018-01-18T04:58:22.196Z,87.82
2018-01-18T04:59:49.411Z,88.26
2018-01-18T05:01:16.615Z,88.29
2018-01-18T05:02:47.670Z,88.23
2018-01-18T05:04:14.515Z,88.00
2018-01-18T05:05:41.866Z,87.84
2018-01-18T05:07:05.191Z,87.76
2018-01-18T05:08:32.369Z,87.92
2018-01-18T05:10:03.457Z,87.81
2018-01-18T05:11:30.729Z,87.76
2018-01-18T05:12:53.958Z,87.74
2018-01-18T05:14:25.296Z,87.71
2018-01-18T05:15:48.533Z,87.89
2018-01-18T05:17:15.218Z,87.71
2018-01-18T05:18:42.326Z,87.67
2018-01-18T05:20:09.582Z,87.69
2018-01-18T05:21:36.885Z,87.68
2018-01-18T05:23:07.609Z,87.70
2018-01-18T05:24:34.818Z,87.76
2018-01-18T05:26:01.808Z,87.56
2018-01-18T05:27:24.961Z,87.53
2018-01-18T05:28:56.047Z,87.68
2018-01-18T05:30:23.259Z,87.73
2018-01-18T05:31:46.013Z,87.64
2018-01-18T05:33:17.336Z,87.66
2018-01-18T05:34:44.107Z,87.58
2018-01-18T05:36:11.172Z,87.63
2018-01-18T05:37:37.850Z,87.67
2018-01-18T05:39:05.028Z,87.66
2018-01-18T05:40:32.265Z,87.67
2018-01-18T05:41:59.232Z,87.56
2018-01-18T05:43:26.512Z,87.54
2018-01-18T05:44:49.678Z,87.55
2018-01-18T05:46:16.776Z,87.36
2018-01-18T05:47:47.888Z,87.32
2018-01-18T05:49:15.142Z,87.15
2018-01-18T05:50:42.264Z,87.18
2018-01-18T05:52:05.715Z,87.17
2018-01-18T05:53:32.708Z,87.13
2018-01-18T05:54:59.890Z,87.23
2018-01-18T05:56:26.521Z,87.27
2018-01-18T05:57:53.631Z,87.33
2018-01-18T05:59:24.784Z,87.19
2018-01-18T06:00:51.615Z,87.31
2018-01-18T06:02:19.868Z,87.21
2018-01-18T06:03:45.708Z,87.20
2018-01-18T06:05:12.973Z,87.16
2018-01-18T06:06:36.176Z,87.16
2018-01-18T06:08:03.450Z,87.18
2018-01-18T06:09:30.651Z,87.27
2018-01-18T06:11:01.012Z,87.19
2018-01-18T06:12:28.079Z,87.10
2018-01-18T06:13:51.340Z,87.20
2018-01-18T06:15:18.666Z,87.21
2018-01-18T06:16:49.916Z,87.25
2018-01-18T06:18:12.219Z,87.24
2018-01-18T06:19:39.567Z,87.29
2018-01-18T06:21:10.687Z,87.26
2018-01-18T06:22:34.035Z,87.42
2018-01-18T06:24:05.307Z,87.47
2018-01-18T06:25:32.500Z,87.44
2018-01-18T06:26:59.690Z,87.51
2018-01-18T06:28:26.812Z,87.58
2018-01-18T06:29:54.074Z,87.61
2018-01-18T06:31:21.398Z,87.63
2018-01-18T06:32:48.464Z,87.63
2018-01-18T06:34:15.820Z,87.61
2018-01-18T06:35:42.487Z,87.71
2018-01-18T06:37:09.839Z,87.75
2018-01-18T06:38:33.026Z,87.67
2018-01-18T06:40:04.112Z,87.73
2018-01-18T06:41:31.138Z,87.80
2018-01-18T06:42:54.040Z,87.88
2018-01-18T06:44:24.841Z,87.79
2018-01-18T06:45:52.065Z,87.77
2018-01-18T06:47:19.331Z,87.81
2018-01-18T06:48:46.610Z,87.87
2018-01-18T06:50:13.861Z,87.80
2018-01-18T06:51:37.025Z,87.74
2018-01-18T06:53:04.334Z,87.76
2018-01-18T06:54:35.581Z,87.75
2018-01-18T06:55:58.622Z,87.57
2018-01-18T06:57:29.484Z,87.64
2018-01-18T06:58:56.431Z,87.78
2018-01-18T07:00:19.682Z,87.84
2018-01-18T07:01:46.970Z,87.93
2018-01-18T07:03:14.142Z,88.01
2018-01-18T07:04:45.310Z,88.14
2018-01-18T07:06:11.961Z,88.19
2018-01-18T07:07:35.232Z,88.10
2018-01-18T07:09:02.435Z,88.31
2018-01-18T07:10:29.706Z,88.27
2018-01-18T07:12:00.882Z,88.16
2018-01-18T07:13:24.172Z,88.10
2018-01-18T07:14:51.264Z,88.03
2018-01-18T07:16:22.550Z,88.08
2018-01-18T07:17:45.905Z,88.12
2018-01-18T07:19:17.164Z,87.99
2018-01-18T07:20:40.241Z,88.06
2018-01-18T07:22:07.519Z,87.99
2018-01-18T07:23:38.805Z,88.00
2018-01-18T07:25:01.971Z,88.21
2018-01-18T07:26:32.983Z,88.16
2018-01-18T07:28:00.067Z,88.13
2018-01-18T07:29:23.150Z,88.33
2018-01-18T07:30:50.338Z,88.44
2018-01-18T07:32:17.408Z,88.43
2018-01-18T07:33:48.695Z,88.61
2018-01-18T07:35:15.867Z,88.53
2018-01-18T07:36:38.782Z,88.52
2018-01-18T07:38:06.107Z,88.42
2018-01-18T07:39:33.160Z,88.56
2018-01-18T07:40:59.880Z,88.78
2018-01-18T07:42:27.136Z,88.68
2018-01-18T07:43:54.143Z,88.58
2018-01-18T07:45:25.453Z,88.52
2018-01-18T07:46:52.630Z,88.25
2018-01-18T07:48:15.901Z,88.35
2018-01-18T07:49:43.087Z,88.33
2018-01-18T07:51:14.370Z,88.13
2018-01-18T07:52:41.448Z,88.15
2018-01-18T07:54:08.542Z,88.06
2018-01-18T07:55:31.460Z,88.27
2018-01-18T07:56:58.761Z,88.22
2018-01-18T07:58:25.567Z,88.06
2018-01-18T07:59:56.591Z,88.11
2018-01-18T08:01:19.790Z,87.93
2018-01-18T08:02:50.823Z,88.03
2018-01-18T08:04:13.708Z,87.91
2018-01-18T08:05:44.805Z,88.00
2018-01-18T08:07:08.032Z,87.90
2018-01-18T08:08:39.269Z,87.94
2018-01-18T08:10:06.548Z,87.92
2018-01-18T08:11:33.864Z,87.74
2018-01-18T08:13:00.998Z,87.79
2018-01-18T08:14:23.903Z,87.64
2018-01-18T08:15:55.002Z,87.68
2018-01-18T08:17:18.333Z,87.65
2018-01-18T08:18:45.376Z,87.58
2018-01-18T08:20:16.677Z,87.70
2018-01-18T08:21:43.753Z,87.66
2018-01-18T08:23:11.045Z,87.63
2018-01-18T08:24:34.348Z,87.60
2018-01-18T08:26:01.599Z,87.45
2018-01-18T08:27:28.731Z,87.48
2018-01-18T08:28:59.707Z,87.47
2018-01-18T08:30:26.491Z,87.59
2018-01-18T08:31:53.427Z,87.69
2018-01-18T08:33:16.301Z,87.69
2018-01-18T08:34:43.391Z,87.66
2018-01-18T08:36:10.790Z,87.80
2018-01-18T08:37:38.041Z,87.73
2018-01-18T08:39:09.135Z,87.55
2018-01-18T08:40:36.212Z,87.37
2018-01-18T08:42:03.391Z,87.46
2018-01-18T08:43:26.595Z,87.15
2018-01-18T08:44:53.830Z,87.23
2018-01-18T08:46:20.879Z,87.65
2018-01-18T08:47:48.031Z,87.58
2018-01-18T08:49:19.220Z,87.78
2018-01-18T08:50:42.446Z,87.89
2018-01-18T08:52:09.526Z,88.01
2018-01-18T08:53:40.725Z,87.99
2018-01-18T08:55:04.016Z,88.22
2018-01-18T08:56:31.182Z,88.00
2018-01-18T08:57:58.143Z,88.18
2018-01-18T08:59:29.260Z,88.13
2018-01-18T09:00:52.529Z,88.20
2018-01-18T09:02:19.618Z,88.47
2018-01-18T09:03:50.970Z,88.60
2018-01-18T09:05:14.085Z,88.31
2018-01-18T09:06:40.798Z,88.42
2018-01-18T09:08:11.848Z,88.17
2018-01-18T09:09:35.056Z,88.51
2018-01-18T09:11:02.120Z,88.50
2018-01-18T09:12:29.086Z,88.55
2018-01-18T09:13:56.173Z,88.71
2018-01-18T09:15:23.316Z,88.92
2018-01-18T09:16:57.361Z,88.66
2018-01-18T09:18:17.450Z,89.00
2018-01-18T09:19:44.713Z,89.12
2018-01-18T09:21:15.939Z,89.53
2018-01-18T09:22:39.225Z,89.22
2018-01-18T09:24:06.418Z,89.15
2018-01-18T09:25:37.701Z,89.35
2018-01-18T09:27:00.812Z,88.94
2018-01-18T09:28:32.029Z,89.30
2018-01-18T09:29:55.107Z,89.67
2018-01-18T09:31:26.491Z,89.72
2018-01-18T09:32:53.447Z,90.12
2018-01-18T09:34:20.593Z,90.02
2018-01-18T09:35:43.573Z,90.09
2018-01-18T09:37:10.757Z,90.21
2018-01-18T09:38:37.953Z,90.02
2018-01-18T09:40:08.922Z,90.35
2018-01-18T09:41:32.151Z,90.17
2018-01-18T09:42:59.395Z,90.37
2018-01-18T09:44:26.697Z,90.66
2018-01-18T09:45:53.504Z,90.86
2018-01-18T09:47:24.641Z,90.93
2018-01-18T09:48:51.829Z,90.87
2018-01-18T09:50:19.084Z,91.03
2018-01-18T09:51:42.442Z,91.20
2018-01-18T09:53:13.650Z,90.94
2018-01-18T09:54:36.910Z,91.28
2018-01-18T09:56:04.041Z,91.16
2018-01-18T09:57:31.124Z,91.16
2018-01-18T09:58:58.207Z,91.28
2018-01-18T10:00:29.176Z,91.63
2018-01-18T10:01:56.139Z,91.84
2018-01-18T10:03:19.464Z,91.75
2018-01-18T10:04:50.600Z,91.44
2018-01-18T10:06:13.866Z,91.33
2018-01-18T10:07:44.958Z,91.70
2018-01-18T10:09:08.085Z,92.00
2018-01-18T10:10:35.211Z,92.57
2018-01-18T10:12:02.262Z,92.55
2018-01-18T10:13:29.383Z,93.07
2018-01-18T10:15:00.392Z,92.96
2018-01-18T10:16:27.417Z,93.27
2018-01-18T10:17:50.504Z,93.54
2018-01-18T10:19:17.550Z,93.85
2018-01-18T10:20:49.002Z,93.87
2018-01-18T10:22:12.047Z,94.35
2018-01-18T10:23:39.180Z,94.42
2018-01-18T10:25:06.163Z,94.58
2018-01-18T10:26:37.209Z,95.02
2018-01-18T10:28:04.252Z,95.22
2018-01-18T10:29:27.405Z,95.54
2018-01-18T10:30:54.525Z,95.56
2018-01-18T10:32:25.711Z,95.82
2018-01-18T10:33:48.562Z,95.90
2018-01-18T10:35:15.795Z,96.07
2018-01-18T10:36:46.868Z,96.36
2018-01-18T10:38:10.073Z,96.64
2018-01-18T10:39:37.317Z,96.86
2018-01-18T10:41:08.352Z,97.22
2018-01-18T10:42:31.418Z,97.39
2018-01-18T10:43:58.637Z,97.74
2018-01-18T10:45:25.725Z,97.93
2018-01-18T10:46:52.578Z,98.15
2018-01-18T10:48:19.592Z,98.23
2018-01-18T10:49:46.787Z,98.22
2018-01-18T10:51:18.038Z,98.30
2018-01-18T10:52:41.173Z,98.60
2018-01-18T10:54:08.343Z,98.96
2018-01-18T10:55:35.458Z,99.07
2018-01-18T10:57:02.620Z,99.23
2018-01-18T10:58:29.704Z,99.50
2018-01-18T11:00:00.851Z,99.84
2018-01-18T11:01:23.871Z,100.00
2018-01-18T11:02:51.040Z,100.00
2018-01-18T11:04:18.208Z,100.00
2018-01-18T11:05:49.183Z,100.00
2018-01-18T11:07:16.260Z,100.00
2018-01-18T11:08:39.209Z,100.00
2018-01-18T11:10:10.282Z,100.00
2018-01-18T11:11:33.338Z,100.00
2018-01-18T11:13:04.302Z,100.00
2018-01-18T11:14:27.122Z,100.00
2018-01-18T11:15:54.101Z,100.00
2018-01-18T11:17:21.344Z,100.00
2018-01-18T11:18:51.979Z,100.00
2018-01-18T11:20:19.135Z,100.00
2018-01-18T11:21:42.387Z,100.00
2018-01-18T11:23:09.409Z,100.00
2018-01-18T11:24:36.533Z,100.00
2018-01-18T11:26:07.757Z,100.00
2018-01-18T11:27:30.985Z,100.00
2018-01-18T11:28:57.895Z,100.00
2018-01-18T11:30:28.939Z,100.00
2018-01-18T11:31:52.154Z,100.00
2018-01-18T11:33:23.220Z,100.00
2018-01-18T11:34:46.417Z,100.00
2018-01-18T11:36:13.616Z,100.00
2018-01-18T11:37:40.843Z,100.00
2018-01-18T11:39:11.936Z,100.00
2018-01-18T11:40:35.144Z,100.00
2018-01-18T11:42:02.210Z,100.00
2018-01-18T11:43:29.336Z,100.00
2018-01-18T11:44:56.499Z,100.00
2018-01-18T11:46:27.556Z,100.00
2018-01-18T11:47:54.630Z,100.00
2018-01-18T11:49:17.677Z,100.00
2018-01-18T11:50:48.786Z,100.00
2018-01-18T11:52:15.873Z,100.00
2018-01-18T11:53:39.068Z,100.00
2018-01-18T11:55:10.152Z,100.00
2018-01-18T11:56:37.129Z,100.00
2018-01-18T11:58:00.127Z,100.00
2018-01-18T11:59:31.142Z,100.00
2018-01-18T12:00:58.002Z,100.00
2018-01-18T12:02:25.160Z,100.00
2018-01-18T12:03:52.237Z,100.00
2018-01-18T12:05:19.459Z,100.00
2018-01-18T12:06:42.328Z,100.00
2018-01-18T12:08:13.558Z,100.00
2018-01-18T12:09:44.931Z,100.00
2018-01-18T12:11:07.896Z,100.00
2018-01-18T12:12:35.123Z,100.00
2018-01-18T12:14:02.352Z,100.00
2018-01-18T12:15:25.347Z,100.00
2018-01-18T12:16:56.366Z,100.00
2018-01-18T12:18:19.587Z,100.00
2018-01-18T12:19:50.814Z,100.00
2018-01-18T12:21:17.979Z,100.00
2018-01-18T12:22:41.003Z,100.00
2018-01-18T12:24:08.150Z,100.00
2018-01-18T12:25:35.401Z,100.00
2018-01-18T12:27:02.549Z,100.00
2018-01-18T12:28:29.678Z,100.00
2018-01-18T12:30:00.817Z,100.00
2018-01-18T12:31:27.924Z,100.00
2018-01-18T12:32:55.003Z,100.00
2018-01-18T12:34:22.221Z,100.00
2018-01-18T12:35:45.331Z,100.00
2018-01-18T12:37:12.392Z,100.00
2018-01-18T12:38:43.479Z,100.00
2018-01-18T12:40:10.492Z,100.00
2018-01-18T12:41:37.606Z,100.00
2018-01-18T12:43:04.709Z,100.00
2018-01-18T12:44:27.693Z,100.00
2018-01-18T12:45:54.736Z,100.00
2018-01-18T12:47:25.857Z,100.00
2018-01-18T12:48:49.132Z,100.00
2018-01-18T12:50:19.992Z,100.00
2018-01-18T12:51:43.226Z,100.00
2018-01-18T12:53:10.368Z,100.00
2018-01-18T12:54:37.387Z,100.00
2018-01-18T12:56:04.582Z,100.00
2018-01-18T12:57:31.744Z,100.00
2018-01-18T12:59:03.037Z,100.00
2018-01-18T13:00:26.100Z,100.00
2018-01-18T13:01:53.194Z,100.00
2018-01-18T13:03:20.148Z,100.00
2018-01-18T13:04:51.386Z,100.00
2018-01-18T13:06:14.358Z,100.00
2018-01-18T13:07:45.311Z,100.00
2018-01-18T13:09:12.506Z,100.00
2018-01-18T13:10:35.753Z,100.00
2018-01-18T13:12:06.781Z,100.00
2018-01-18T13:13:33.778Z,100.00
2018-01-18T13:15:00.783Z,100.00
2018-01-18T13:16:27.919Z,100.00
2018-01-18T13:17:55.025Z,100.00
2018-01-18T13:19:18.180Z,100.00
2018-01-18T13:20:49.196Z,100.00
2018-01-18T13:22:12.310Z,100.00
2018-01-18T13:23:43.519Z,100.00
2018-01-18T13:25:06.856Z,100.00
2018-01-18T13:26:34.033Z,100.00
2018-01-18T13:28:05.216Z,100.00
2018-01-18T13:29:28.444Z,100.00
2018-01-18T13:30:55.399Z,100.00
2018-01-18T13:32:26.668Z,100.00
2018-01-18T13:33:49.833Z,100.00
2018-01-18T13:35:20.912Z,100.00
2018-01-18T13:36:48.102Z,100.00
2018-01-18T13:38:15.072Z,100.00
2018-01-18T13:39:38.257Z,100.00
2018-01-18T13:41:09.466Z,100.00
2018-01-18T13:42:32.617Z,100.00
2018-01-18T13:44:03.464Z,100.00
2018-01-18T13:45:26.554Z,100.00
2018-01-18T13:46:57.547Z,100.00
2018-01-18T13:48:24.438Z,100.00
2018-01-18T13:49:47.667Z,100.00
2018-01-18T13:51:14.775Z,100.00
2018-01-18T13:52:45.852Z,100.00
2018-01-18T13:54:13.086Z,100.00
2018-01-18T13:55:40.293Z,100.00
2018-01-18T13:57:03.076Z,100.00
2018-01-18T13:58:34.095Z,100.00
2018-01-18T14:00:01.192Z,100.00
2018-01-18T14:01:28.318Z,100.00
2018-01-18T14:02:51.640Z,100.00
2018-01-18T14:04:22.605Z,100.00
2018-01-18T14:05:49.830Z,100.00
2018-01-18T14:07:12.995Z,100.00
2018-01-18T14:08:44.204Z,100.00
2018-01-18T14:10:07.173Z,100.00
2018-01-18T14:11:34.267Z,100.00
2018-01-18T14:13:05.260Z,100.00
2018-01-18T14:14:32.270Z,100.00
2018-01-18T14:15:59.232Z,100.00
2018-01-18T14:17:26.515Z,100.00
2018-01-18T14:18:49.639Z,100.00
2018-01-18T14:20:20.691Z,100.00
2018-01-18T14:21:47.727Z,100.00
2018-01-18T14:23:14.671Z,100.00
2018-01-18T14:24:41.849Z,100.00
2018-01-18T14:26:04.885Z,100.00
2018-01-18T14:27:32.078Z,100.00
2018-01-18T14:29:03.120Z,100.00
2018-01-18T14:30:30.273Z,100.00
2018-01-18T14:31:53.322Z,100.00
2018-01-18T14:33:24.432Z,100.00
2018-01-18T14:34:47.459Z,100.00
2018-01-18T14:36:18.699Z,100.00
2018-01-18T14:37:41.779Z,100.00
2018-01-18T14:39:12.881Z,100.00
2018-01-18T14:40:39.947Z,100.00
2018-01-18T14:42:03.088Z,100.00
2018-01-18T14:43:30.288Z,100.00
2018-01-18T14:44:57.296Z,100.00
2018-01-18T14:46:24.481Z,100.00
2018-01-18T14:47:55.772Z,100.00
2018-01-18T14:49:22.878Z,100.00
2018-01-18T14:50:45.869Z,100.00
2018-01-18T14:52:17.017Z,100.00
2018-01-18T14:53:44.276Z,100.00
2018-01-18T14:55:11.397Z,100.00
2018-01-18T14:56:38.592Z,100.00
2018-01-18T14:58:05.787Z,100.00
2018-01-18T14:59:32.834Z,100.00
2018-01-18T15:00:55.929Z,100.00
2018-01-18T15:02:26.992Z,100.00
2018-01-18T15:03:54.243Z,100.00
2018-01-18T15:05:21.352Z,100.00
2018-01-18T15:06:44.450Z,100.00
2018-01-18T15:08:15.508Z,100.00
2018-01-18T15:09:42.647Z,100.00
2018-01-18T15:11:05.665Z,100.00
2018-01-18T15:12:32.753Z,100.00
2018-01-18T15:14:03.754Z,100.00
2018-01-18T15:15:31.133Z,100.00
2018-01-18T15:16:54.021Z,100.00
2018-01-18T15:18:24.894Z,100.00
2018-01-18T15:19:52.071Z,100.00
2018-01-18T15:21:19.138Z,100.00
2018-01-18T15:22:42.353Z,100.00
2018-01-18T15:24:13.502Z,100.00
2018-01-18T15:25:40.647Z,100.00
2018-01-18T15:27:07.699Z,100.00
2018-01-18T15:28:30.828Z,100.00
2018-01-18T15:29:57.894Z,100.00
2018-01-18T15:31:24.869Z,100.00
2018-01-18T15:32:56.116Z,100.00
2018-01-18T15:34:19.255Z,100.00
2018-01-18T15:35:50.383Z,100.00
2018-01-18T15:37:17.509Z,100.00
2018-01-18T15:38:40.671Z,100.00
2018-01-18T15:40:07.895Z,100.00
2018-01-18T15:41:38.948Z,100.00
2018-01-18T15:43:02.203Z,100.00
2018-01-18T15:44:33.208Z,100.00
2018-01-18T15:46:00.343Z,100.00
2018-01-18T15:47:23.605Z,100.00
2018-01-18T15:48:54.695Z,100.00
2018-01-18T15:50:17.648Z,100.00
2018-01-18T15:51:44.725Z,100.00
2018-01-18T15:53:11.849Z,100.00
2018-01-18T15:54:38.979Z,100.00
2018-01-18T15:56:06.325Z,100.00
2018-01-18T15:57:37.546Z,100.00
2018-01-18T15:59:00.906Z,100.00
2018-01-18T16:00:27.931Z,100.00
2018-01-18T16:01:55.017Z,100.00
2018-01-18T16:03:26.218Z,100.00
2018-01-18T16:04:53.371Z,100.00
2018-01-18T16:06:16.570Z,100.00
2018-01-18T16:07:43.678Z,100.00
2018-01-18T16:09:14.686Z,100.00
2018-01-18T16:10:41.840Z,100.00
2018-01-18T16:12:08.958Z,100.00
2018-01-18T16:13:35.663Z,100.00
2018-01-18T16:15:02.794Z,100.00
2018-01-18T16:16:25.777Z,100.00
2018-01-18T16:17:56.625Z,100.00
2018-01-18T16:19:19.725Z,100.00
2018-01-18T16:20:51.023Z,100.00
2018-01-18T16:22:17.987Z,100.00
2018-01-18T16:23:41.089Z,100.00
2018-01-18T16:25:12.059Z,100.00
2018-01-18T16:26:39.130Z,100.00
2018-01-18T16:28:06.303Z,100.00
2018-01-18T16:29:29.423Z,100.00
2018-01-18T16:31:00.666Z,100.00
2018-01-18T16:32:23.861Z,100.00
2018-01-18T16:33:54.865Z,100.00
2018-01-18T16:35:17.828Z,100.00
2018-01-18T16:36:49.059Z,100.00
2018-01-18T16:38:12.232Z,100.00
2018-01-18T16:39:39.533Z,100.00
2018-01-18T16:41:10.645Z,100.00
2018-01-18T16:42:37.867Z,100.00
2018-01-18T16:44:01.062Z,100.00
2018-01-18T16:45:28.094Z,100.00
2018-01-18T16:46:59.236Z,100.00
2018-01-18T16:48:26.572Z,100.00
2018-01-18T16:49:53.606Z,100.00
2018-01-18T16:51:20.733Z,100.00
2018-01-18T16:52:47.901Z,100.00
2018-01-18T16:54:11.109Z,100.00
2018-01-18T16:55:38.556Z,100.00
2018-01-18T16:57:09.635Z,100.00
2018-01-18T16:58:32.871Z,100.00
2018-01-18T17:00:03.907Z,100.00
2018-01-18T17:01:31.126Z,100.00
2018-01-18T17:02:54.175Z,100.00
2018-01-18T17:04:25.365Z,100.00
2018-01-18T17:05:52.504Z,100.00
2018-01-18T17:07:19.744Z,100.00
2018-01-18T17:08:46.779Z,100.00
2018-01-18T17:10:09.955Z,100.00
2018-01-18T17:11:41.066Z,100.00
2018-01-18T17:13:08.252Z,100.00
2018-01-18T17:14:31.431Z,99.97
2018-01-18T17:16:02.537Z,100.00
2018-01-18T17:17:29.650Z,100.00
2018-01-18T17:18:52.815Z,100.00
2018-01-18T17:20:19.958Z,100.00
2018-01-18T17:21:51.118Z,100.00
2018-01-18T17:23:18.142Z,100.00
2018-01-18T17:24:41.390Z,100.00
2018-01-18T17:26:12.396Z,100.00
2018-01-18T17:27:35.587Z,100.00
2018-01-18T17:29:02.811Z,100.00
2018-01-18T17:30:34.008Z,100.00
2018-01-18T17:31:57.144Z,100.00
2018-01-18T17:33:28.051Z,100.00
2018-01-18T17:34:55.278Z,100.00
2018-01-18T17:36:22.274Z,100.00
2018-01-18T17:37:45.283Z,100.00
2018-01-18T17:39:12.481Z,100.00
2018-01-18T17:40:38.957Z,100.00
2018-01-18T17:42:06.242Z,100.00
2018-01-18T17:43:37.338Z,100.00
2018-01-18T17:44:59.683Z,100.00
2018-01-18T17:46:30.804Z,100.00
2018-01-18T17:47:57.304Z,100.00
2018-01-18T17:49:24.524Z,100.00
2018-01-18T17:50:51.730Z,100.00
2018-01-18T17:52:21.991Z,100.00
2018-01-18T17:53:45.765Z,100.00
2018-01-18T17:55:12.774Z,100.00
2018-01-18T17:56:35.907Z,100.00
2018-01-18T17:58:02.468Z,100.00
2018-01-18T17:59:33.652Z,100.00
2018-01-18T18:00:56.287Z,100.00
2018-01-18T18:02:23.177Z,100.00
2018-01-18T18:03:49.707Z,100.00
2018-01-18T18:05:16.658Z,100.00
2018-01-18T18:06:43.677Z,100.00
2018-01-18T18:08:10.985Z,100.00
2018-01-18T18:09:38.067Z,100.00
2018-01-18T18:11:08.804Z,100.00
2018-01-18T18:12:31.912Z,100.00
2018-01-18T18:13:59.104Z,100.00
2018-01-18T18:15:30.083Z,100.00
2018-01-18T18:16:53.317Z,100.00
2018-01-18T18:18:20.525Z,100.00
2018-01-18T18:19:47.848Z,100.00
2018-01-18T18:21:19.110Z,100.00
2018-01-18T18:22:46.424Z,100.00
2018-01-18T18:24:13.584Z,100.00
2018-01-18T18:25:40.725Z,100.00
2018-01-18T18:27:07.873Z,100.00